Kadena Air Base, Japan
Current Conditions -  °F | °C
As of 2:58 PM on Thursday 23 Oct 2014 (Local Time) from RODN Reporting Station
Clear Clear  
Wind Chill: 80°   Ceiling: Unl
Heat Index: 81°   Visibility: 9mi
Dew Point: 61°   Wind: 14mph
Humidity: 53%   Direction: 10°N
Pressure: 29.97"   Gusts: 21mph
Location:  26.37°N, 127.75°E
Report Text: RODN 230558Z AUTO 01012G18KT 9SM CLR 26/16 A2997 RMK AO2 SLP155 60000 T02640162 10270 20249 56011 $
Loading
Personal Weather Stations






























Interactive Weather Map
Tropical Storm Tracking
New forecast layout! Learn more

10-Day Weather Forecast

Advertisements
Track Severe Weather on mobile